Airfield :
LOGIN :

Register | Disclaimer

   EN    FR    IT 

 










Legend :    VFR   Marginal VFR   IFR   Intensive IFR   Very Intensive IFR
Visi :
Ceiling :
>= 8 km
>= 3000ft
5 to 8 km
1000 to 3000 ft
1500m to 5 km
500 to 1000 ft
800 to 1500m
200 to 500 ft
< 800m
< 200 ft
Symbols :   Thunderstorms  Fog  Heavy snow  Heavy precipitations  Wind > 20 kt
SIGMETs :     Misc.  Thunderstorms  Icing  Turbulence  Mountain Waves  Volcanic Ashes






- Airport Elevation : 622 ft
- IATA code : BRS


EGGD - Bristol Int.

CURRENT METAR :
  • 082120Z AUTO 20011KT 5000 -RA SCT007/// BKN014/// OVC018/// //////TCU 05/04 Q0992 RERA

EXPIRED METARs :
  • 082050Z AUTO 22015KT 4900 RA FEW013/// BKN017/// BKN021/// //////CB 05/03 Q0994
  • 082020Z AUTO 22014KT 9999 SCT023/// BKN029/// BKN035/// //////TCU 05/03 Q0995
  • 081950Z AUTO 23021G32KT 9999 -RA SCT015/// BKN020/// BKN027/// //////CB 06/03 Q0996
  • 081920Z AUTO 22011KT 9999 FEW015/// BKN024/// BKN042/// //////TCU 05/04 Q0996
  • 081850Z AUTO 22013KT 9999 BKN021/// //////TCU 06/03 Q0996

TAF AMD TAF EGGD
Valid from the 08 at 21:00 until the 09 at 18:00 UTC


082138Z 0821/0918 24020KT 9999 FEW008 SCT025
BECMG 0821/0824 27022G32KT
TEMPO 0821/0906 6000 SHRA BKN008
PROB30
TEMPO 0821/0903 27028G42KT 4000 +SHRA TSGS BKN004 BKN020CB
BECMG 0903/0906 31017G27KT
BECMG 0909/0912 32014KT
BECMG 0915/0918 26006KT
ATIS : +44 1275 473 666



MET'MAP, your aeronautical weather chart ! - Copyright ORBIFLY December 2007 - Disclaimer

ORBIFLY MET'MAP TEAM :

Programming & Development : Alexandra Zaïnal
Concept & original design : Baudouin d'Aumeries
Assistance for programming : Marc-Olivier Méhu
Technical & hardware support : Manuel Goepfert

Contact : metmap@orbifly.com




SOURCES & CREDITS :

   NOAA